sensor_id;sensor_type;location;lat;lon;timestamp;temperature;humidity
21092;DHT22;10704;42.678;23.288;2024-02-26T00:01:42;7.90;99.90
21092;DHT22;10704;42.678;23.288;2024-02-26T00:07:38;8.00;99.90
21092;DHT22;10704;42.678;23.288;2024-02-26T00:10:05;8.00;99.90
21092;DHT22;10704;42.678;23.288;2024-02-26T00:12:31;8.10;99.90
21092;DHT22;10704;42.678;23.288;2024-02-26T00:14:57;8.20;99.90
21092;DHT22;10704;42.678;23.288;2024-02-26T00:17:24;8.10;99.90
21092;DHT22;10704;42.678;23.288;2024-02-26T00:19:50;8.20;99.90
21092;DHT22;10704;42.678;23.288;2024-02-26T00:22:16;8.20;99.90
21092;DHT22;10704;42.678;23.288;2024-02-26T00:28:29;8.30;99.90
21092;DHT22;10704;42.678;23.288;2024-02-26T00:30:55;8.30;99.90
21092;DHT22;10704;42.678;23.288;2024-02-26T00:33:22;8.40;99.90
21092;DHT22;10704;42.678;23.288;2024-02-26T00:39:55;8.50;99.90
21092;DHT22;10704;42.678;23.288;2024-02-26T00:42:21;8.40;99.90
21092;DHT22;10704;42.678;23.288;2024-02-26T00:44:47;8.50;99.90
21092;DHT22;10704;42.678;23.288;2024-02-26T00:47:13;8.60;99.90
21092;DHT22;10704;42.678;23.288;2024-02-26T00:49:39;8.50;99.90
21092;DHT22;10704;42.678;23.288;2024-02-26T00:52:05;8.60;99.90
21092;DHT22;10704;42.678;23.288;2024-02-26T00:54:31;8.50;99.90
21092;DHT22;10704;42.678;23.288;2024-02-26T00:56:57;8.50;99.90
21092;DHT22;10704;42.678;23.288;2024-02-26T00:59:23;8.60;99.90
21092;DHT22;10704;42.678;23.288;2024-02-26T01:01:49;8.60;99.90
21092;DHT22;10704;42.678;23.288;2024-02-26T01:04:15;8.50;99.90
21092;DHT22;10704;42.678;23.288;2024-02-26T01:06:40;8.60;99.90
21092;DHT22;10704;42.678;23.288;2024-02-26T01:09:06;8.50;99.90
21092;DHT22;10704;42.678;23.288;2024-02-26T01:11:33;8.50;99.90
21092;DHT22;10704;42.678;23.288;2024-02-26T01:13:59;8.50;99.90
21092;DHT22;10704;42.678;23.288;2024-02-26T01:16:25;8.50;99.90
21092;DHT22;10704;42.678;23.288;2024-02-26T01:18:54;8.50;99.90
21092;DHT22;10704;42.678;23.288;2024-02-26T01:21:20;8.50;99.90
21092;DHT22;10704;42.678;23.288;2024-02-26T01:31:20;8.40;99.90
21092;DHT22;10704;42.678;23.288;2024-02-26T01:33:46;8.20;99.90
21092;DHT22;10704;42.678;23.288;2024-02-26T01:36:12;8.20;99.90
21092;DHT22;10704;42.678;23.288;2024-02-26T01:38:38;8.20;99.90
21092;DHT22;10704;42.678;23.288;2024-02-26T01:41:04;8.30;99.90
21092;DHT22;10704;42.678;23.288;2024-02-26T01:43:30;8.40;99.90
21092;DHT22;10704;42.678;23.288;2024-02-26T01:48:41;8.40;99.90
21092;DHT22;10704;42.678;23.288;2024-02-26T01:51:08;8.40;99.90
21092;DHT22;10704;42.678;23.288;2024-02-26T01:53:35;8.40;99.90
21092;DHT22;10704;42.678;23.288;2024-02-26T01:56:01;8.30;99.90
21092;DHT22;10704;42.678;23.288;2024-02-26T01:58:28;8.30;99.90
21092;DHT22;10704;42.678;23.288;2024-02-26T02:00:56;8.30;99.90
21092;DHT22;10704;42.678;23.288;2024-02-26T02:03:23;8.30;99.90
21092;DHT22;10704;42.678;23.288;2024-02-26T02:05:49;8.30;99.90
21092;DHT22;10704;42.678;23.288;2024-02-26T02:08:15;8.30;99.90
21092;DHT22;10704;42.678;23.288;2024-02-26T02:10:42;8.40;99.90
21092;DHT22;10704;42.678;23.288;2024-02-26T02:13:08;8.50;99.90
21092;DHT22;10704;42.678;23.288;2024-02-26T02:15:34;8.30;99.90
21092;DHT22;10704;42.678;23.288;2024-02-26T02:18:00;8.30;99.90
21092;DHT22;10704;42.678;23.288;2024-02-26T02:20:34;8.20;99.90
21092;DHT22;10704;42.678;23.288;2024-02-26T02:23:01;8.20;99.90
21092;DHT22;10704;42.678;23.288;2024-02-26T02:25:28;8.20;99.90
21092;DHT22;10704;42.678;23.288;2024-02-26T02:27:54;8.10;99.90
21092;DHT22;10704;42.678;23.288;2024-02-26T02:30:23;8.20;99.90
21092;DHT22;10704;42.678;23.288;2024-02-26T02:32:49;8.30;99.90
21092;DHT22;10704;42.678;23.288;2024-02-26T02:35:16;8.40;99.90
21092;DHT22;10704;42.678;23.288;2024-02-26T02:37:42;8.50;99.90
21092;DHT22;10704;42.678;23.288;2024-02-26T02:44:00;8.50;99.90
21092;DHT22;10704;42.678;23.288;2024-02-26T02:46:26;8.40;99.90
21092;DHT22;10704;42.678;23.288;2024-02-26T02:48:52;8.50;99.90
21092;DHT22;10704;42.678;23.288;2024-02-26T02:51:18;8.50;99.90
21092;DHT22;10704;42.678;23.288;2024-02-26T02:54:08;8.50;99.90
21092;DHT22;10704;42.678;23.288;2024-02-26T03:04:08;8.40;99.90
21092;DHT22;10704;42.678;23.288;2024-02-26T03:06:34;8.50;99.90
21092;DHT22;10704;42.678;23.288;2024-02-26T03:13:09;8.50;99.90
21092;DHT22;10704;42.678;23.288;2024-02-26T03:15:35;8.60;99.90
21092;DHT22;10704;42.678;23.288;2024-02-26T03:18:01;8.70;99.90
21092;DHT22;10704;42.678;23.288;2024-02-26T03:20:27;8.70;99.90
21092;DHT22;10704;42.678;23.288;2024-02-26T03:22:53;8.80;99.90
21092;DHT22;10704;42.678;23.288;2024-02-26T03:25:19;8.80;99.90
21092;DHT22;10704;42.678;23.288;2024-02-26T03:27:45;8.80;99.90
21092;DHT22;10704;42.678;23.288;2024-02-26T03:30:11;8.80;99.90
21092;DHT22;10704;42.678;23.288;2024-02-26T03:32:37;8.80;99.90
21092;DHT22;10704;42.678;23.288;2024-02-26T03:35:03;8.80;99.90
21092;DHT22;10704;42.678;23.288;2024-02-26T03:37:29;8.80;99.90
21092;DHT22;10704;42.678;23.288;2024-02-26T03:39:55;8.70;99.90
21092;DHT22;10704;42.678;23.288;2024-02-26T03:46:30;8.60;99.90
21092;DHT22;10704;42.678;23.288;2024-02-26T03:48:56;8.70;99.90
21092;DHT22;10704;42.678;23.288;2024-02-26T03:51:22;8.70;99.90
21092;DHT22;10704;42.678;23.288;2024-02-26T03:53:48;8.80;99.90
21092;DHT22;10704;42.678;23.288;2024-02-26T03:56:14;8.70;99.90
21092;DHT22;10704;42.678;23.288;2024-02-26T03:58:40;8.60;99.90
21092;DHT22;10704;42.678;23.288;2024-02-26T04:05:18;8.70;99.90
21092;DHT22;10704;42.678;23.288;2024-02-26T04:07:44;8.70;99.90
21092;DHT22;10704;42.678;23.288;2024-02-26T04:10:10;8.80;99.90
21092;DHT22;10704;42.678;23.288;2024-02-26T04:12:40;8.80;99.90
21092;DHT22;10704;42.678;23.288;2024-02-26T04:15:10;8.80;99.90
21092;DHT22;10704;42.678;23.288;2024-02-26T04:17:37;8.70;99.90
21092;DHT22;10704;42.678;23.288;2024-02-26T04:20:04;8.80;99.90
21092;DHT22;10704;42.678;23.288;2024-02-26T04:22:31;8.80;99.90
21092;DHT22;10704;42.678;23.288;2024-02-26T04:24:58;8.80;99.90
21092;DHT22;10704;42.678;23.288;2024-02-26T04:27:23;8.80;99.90
21092;DHT22;10704;42.678;23.288;2024-02-26T04:29:49;8.80;99.90
21092;DHT22;10704;42.678;23.288;2024-02-26T04:36:02;8.80;99.90
21092;DHT22;10704;42.678;23.288;2024-02-26T04:38:29;8.90;99.90
21092;DHT22;10704;42.678;23.288;2024-02-26T04:40:54;8.80;99.90
21092;DHT22;10704;42.678;23.288;2024-02-26T04:43:20;8.80;99.90
21092;DHT22;10704;42.678;23.288;2024-02-26T04:45:46;8.80;99.90
21092;DHT22;10704;42.678;23.288;2024-02-26T04:48:12;8.80;99.90
21092;DHT22;10704;42.678;23.288;2024-02-26T04:50:38;8.80;99.90
21092;DHT22;10704;42.678;23.288;2024-02-26T04:53:04;8.80;99.90
21092;DHT22;10704;42.678;23.288;2024-02-26T04:55:30;8.80;99.90
21092;DHT22;10704;42.678;23.288;2024-02-26T04:57:56;8.70;99.90
21092;DHT22;10704;42.678;23.288;2024-02-26T05:04:09;8.70;99.90
21092;DHT22;10704;42.678;23.288;2024-02-26T05:10:23;8.70;99.90
21092;DHT22;10704;42.678;23.288;2024-02-26T05:12:49;8.60;99.90
21092;DHT22;10704;42.678;23.288;2024-02-26T05:19:02;8.60;99.90
21092;DHT22;10704;42.678;23.288;2024-02-26T05:21:45;8.40;99.90
21092;DHT22;10704;42.678;23.288;2024-02-26T05:24:15;8.40;99.90
21092;DHT22;10704;42.678;23.288;2024-02-26T05:26:43;8.40;99.90
21092;DHT22;10704;42.678;23.288;2024-02-26T05:29:09;8.40;99.90
21092;DHT22;10704;42.678;23.288;2024-02-26T05:31:35;8.30;99.90
21092;DHT22;10704;42.678;23.288;2024-02-26T05:34:01;8.30;99.90
21092;DHT22;10704;42.678;23.288;2024-02-26T05:40:14;8.30;99.90
21092;DHT22;10704;42.678;23.288;2024-02-26T05:42:40;8.30;99.90
21092;DHT22;10704;42.678;23.288;2024-02-26T05:48:32;8.30;99.90
21092;DHT22;10704;42.678;23.288;2024-02-26T05:54:45;8.30;99.90
21092;DHT22;10704;42.678;23.288;2024-02-26T05:57:11;8.40;99.90
21092;DHT22;10704;42.678;23.288;2024-02-26T05:59:37;8.50;99.90
21092;DHT22;10704;42.678;23.288;2024-02-26T06:02:03;8.40;99.90
21092;DHT22;10704;42.678;23.288;2024-02-26T06:04:29;8.50;99.90
21092;DHT22;10704;42.678;23.288;2024-02-26T06:06:55;8.60;99.90
21092;DHT22;10704;42.678;23.288;2024-02-26T06:09:22;8.50;99.90
21092;DHT22;10704;42.678;23.288;2024-02-26T06:11:48;8.50;99.90
21092;DHT22;10704;42.678;23.288;2024-02-26T06:14:14;8.40;99.90
21092;DHT22;10704;42.678;23.288;2024-02-26T06:16:44;8.30;99.90
21092;DHT22;10704;42.678;23.288;2024-02-26T06:19:10;8.30;99.90
21092;DHT22;10704;42.678;23.288;2024-02-26T06:21:36;8.30;99.90
21092;DHT22;10704;42.678;23.288;2024-02-26T06:24:02;8.50;99.90
21092;DHT22;10704;42.678;23.288;2024-02-26T06:26:28;8.60;99.90
21092;DHT22;10704;42.678;23.288;2024-02-26T06:28:55;8.60;99.90
21092;DHT22;10704;42.678;23.288;2024-02-26T06:31:24;8.70;99.90
21092;DHT22;10704;42.678;23.288;2024-02-26T06:33:53;8.80;99.90
21092;DHT22;10704;42.678;23.288;2024-02-26T06:36:20;8.90;99.90
21092;DHT22;10704;42.678;23.288;2024-02-26T06:38:45;9.00;99.90
21092;DHT22;10704;42.678;23.288;2024-02-26T06:41:13;9.00;99.90
21092;DHT22;10704;42.678;23.288;2024-02-26T06:43:39;9.10;99.90
21092;DHT22;10704;42.678;23.288;2024-02-26T06:46:06;9.10;99.90
21092;DHT22;10704;42.678;23.288;2024-02-26T06:48:32;9.10;99.90
21092;DHT22;10704;42.678;23.288;2024-02-26T06:50:58;9.20;99.90
21092;DHT22;10704;42.678;23.288;2024-02-26T06:53:24;9.20;99.90
21092;DHT22;10704;42.678;23.288;2024-02-26T06:55:50;9.20;99.90
21092;DHT22;10704;42.678;23.288;2024-02-26T06:58:16;9.20;99.90
21092;DHT22;10704;42.678;23.288;2024-02-26T07:00:42;9.30;99.90
21092;DHT22;10704;42.678;23.288;2024-02-26T07:03:07;9.30;99.90
21092;DHT22;10704;42.678;23.288;2024-02-26T07:05:34;9.40;99.90
21092;DHT22;10704;42.678;23.288;2024-02-26T07:07:59;9.40;99.90
21092;DHT22;10704;42.678;23.288;2024-02-26T07:10:25;9.40;99.90
21092;DHT22;10704;42.678;23.288;2024-02-26T07:12:51;9.50;99.90
21092;DHT22;10704;42.678;23.288;2024-02-26T07:15:17;9.60;99.90
21092;DHT22;10704;42.678;23.288;2024-02-26T07:17:44;9.60;99.90
21092;DHT22;10704;42.678;23.288;2024-02-26T07:20:13;9.60;99.90
21092;DHT22;10704;42.678;23.288;2024-02-26T07:22:40;9.60;99.90
21092;DHT22;10704;42.678;23.288;2024-02-26T07:25:08;9.70;99.90
21092;DHT22;10704;42.678;23.288;2024-02-26T07:27:34;9.60;99.90
21092;DHT22;10704;42.678;23.288;2024-02-26T07:30:00;9.50;99.90
21092;DHT22;10704;42.678;23.288;2024-02-26T07:32:26;9.70;99.90
21092;DHT22;10704;42.678;23.288;2024-02-26T07:34:52;9.80;99.90
21092;DHT22;10704;42.678;23.288;2024-02-26T07:37:18;9.70;99.90
21092;DHT22;10704;42.678;23.288;2024-02-26T07:39:44;9.80;99.90
21092;DHT22;10704;42.678;23.288;2024-02-26T07:42:10;9.90;99.90
21092;DHT22;10704;42.678;23.288;2024-02-26T07:44:36;10.00;99.90
21092;DHT22;10704;42.678;23.288;2024-02-26T07:47:02;9.90;99.90
21092;DHT22;10704;42.678;23.288;2024-02-26T07:49:28;9.90;99.90
21092;DHT22;10704;42.678;23.288;2024-02-26T07:51:54;10.10;99.90
21092;DHT22;10704;42.678;23.288;2024-02-26T07:54:23;10.30;99.90
21092;DHT22;10704;42.678;23.288;2024-02-26T07:56:49;10.50;99.90
21092;DHT22;10704;42.678;23.288;2024-02-26T07:59:15;10.40;99.90
21092;DHT22;10704;42.678;23.288;2024-02-26T08:01:41;10.40;99.90
21092;DHT22;10704;42.678;23.288;2024-02-26T08:04:07;10.50;99.90
21092;DHT22;10704;42.678;23.288;2024-02-26T08:06:33;10.50;99.90
21092;DHT22;10704;42.678;23.288;2024-02-26T08:08:59;10.60;99.90
21092;DHT22;10704;42.678;23.288;2024-02-26T08:11:25;10.70;99.90
21092;DHT22;10704;42.678;23.288;2024-02-26T08:13:51;10.70;99.90
21092;DHT22;10704;42.678;23.288;2024-02-26T08:16:16;10.60;99.90
21092;DHT22;10704;42.678;23.288;2024-02-26T08:18:42;10.50;99.90
21092;DHT22;10704;42.678;23.288;2024-02-26T08:21:08;10.60;99.90
21092;DHT22;10704;42.678;23.288;2024-02-26T08:23:34;10.60;99.90
21092;DHT22;10704;42.678;23.288;2024-02-26T08:26:00;10.70;99.90
21092;DHT22;10704;42.678;23.288;2024-02-26T08:28:26;10.80;99.90
21092;DHT22;10704;42.678;23.288;2024-02-26T08:30:52;10.90;99.90
21092;DHT22;10704;42.678;23.288;2024-02-26T08:33:18;10.80;99.90
21092;DHT22;10704;42.678;23.288;2024-02-26T08:35:44;10.90;99.90
21092;DHT22;10704;42.678;23.288;2024-02-26T08:38:10;11.00;99.90
21092;DHT22;10704;42.678;23.288;2024-02-26T08:40:37;11.10;99.90
21092;DHT22;10704;42.678;23.288;2024-02-26T08:43:03;11.20;99.90
21092;DHT22;10704;42.678;23.288;2024-02-26T08:45:29;11.30;99.90
21092;DHT22;10704;42.678;23.288;2024-02-26T08:47:55;11.40;99.90
21092;DHT22;10704;42.678;23.288;2024-02-26T08:50:21;11.50;99.90
21092;DHT22;10704;42.678;23.288;2024-02-26T08:52:47;11.50;99.90
21092;DHT22;10704;42.678;23.288;2024-02-26T08:55:16;11.60;99.90
21092;DHT22;10704;42.678;23.288;2024-02-26T09:01:31;12.10;99.90
21092;DHT22;10704;42.678;23.288;2024-02-26T09:03:58;12.10;99.90
21092;DHT22;10704;42.678;23.288;2024-02-26T09:06:24;12.10;99.90
21092;DHT22;10704;42.678;23.288;2024-02-26T09:08:50;12.10;99.90
21092;DHT22;10704;42.678;23.288;2024-02-26T09:15:04;11.90;99.90
21092;DHT22;10704;42.678;23.288;2024-02-26T09:17:30;12.00;99.90
21092;DHT22;10704;42.678;23.288;2024-02-26T09:19:56;12.20;99.90
21092;DHT22;10704;42.678;23.288;2024-02-26T09:22:22;12.40;99.90
21092;DHT22;10704;42.678;23.288;2024-02-26T09:24:48;12.60;99.90
21092;DHT22;10704;42.678;23.288;2024-02-26T09:27:16;12.50;99.90
21092;DHT22;10704;42.678;23.288;2024-02-26T09:29:42;12.80;99.90
21092;DHT22;10704;42.678;23.288;2024-02-26T09:32:08;13.00;99.90
21092;DHT22;10704;42.678;23.288;2024-02-26T09:34:34;13.20;99.90
21092;DHT22;10704;42.678;23.288;2024-02-26T09:37:00;13.50;99.90
21092;DHT22;10704;42.678;23.288;2024-02-26T09:39:26;13.60;99.90
21092;DHT22;10704;42.678;23.288;2024-02-26T09:41:53;13.80;99.90
21092;DHT22;10704;42.678;23.288;2024-02-26T09:44:20;14.20;99.90
21092;DHT22;10704;42.678;23.288;2024-02-26T09:46:47;14.70;99.90
21092;DHT22;10704;42.678;23.288;2024-02-26T09:49:16;14.80;99.90
21092;DHT22;10704;42.678;23.288;2024-02-26T09:51:42;14.90;99.90
21092;DHT22;10704;42.678;23.288;2024-02-26T09:54:12;14.70;99.90
21092;DHT22;10704;42.678;23.288;2024-02-26T09:56:39;14.60;99.90
21092;DHT22;10704;42.678;23.288;2024-02-26T09:59:12;14.70;99.90
21092;DHT22;10704;42.678;23.288;2024-02-26T10:01:42;14.70;99.90
21092;DHT22;10704;42.678;23.288;2024-02-26T10:04:09;14.40;99.90
21092;DHT22;10704;42.678;23.288;2024-02-26T10:06:37;14.30;99.90
21092;DHT22;10704;42.678;23.288;2024-02-26T10:09:03;14.30;99.90
21092;DHT22;10704;42.678;23.288;2024-02-26T10:11:33;14.40;99.90
21092;DHT22;10704;42.678;23.288;2024-02-26T10:13:59;14.60;99.90
21092;DHT22;10704;42.678;23.288;2024-02-26T10:16:25;14.80;99.90
21092;DHT22;10704;42.678;23.288;2024-02-26T10:18:53;14.70;99.90
21092;DHT22;10704;42.678;23.288;2024-02-26T10:21:22;14.70;99.90
21092;DHT22;10704;42.678;23.288;2024-02-26T10:23:49;14.90;99.90
21092;DHT22;10704;42.678;23.288;2024-02-26T10:26:16;15.20;99.90
21092;DHT22;10704;42.678;23.288;2024-02-26T10:28:43;15.10;99.90
21092;DHT22;10704;42.678;23.288;2024-02-26T10:33:55;15.00;99.90
21092;DHT22;10704;42.678;23.288;2024-02-26T10:36:22;15.10;99.90
21092;DHT22;10704;42.678;23.288;2024-02-26T10:38:48;15.00;99.90
21092;DHT22;10704;42.678;23.288;2024-02-26T10:41:14;15.00;99.90
21092;DHT22;10704;42.678;23.288;2024-02-26T10:43:42;15.10;99.90
21092;DHT22;10704;42.678;23.288;2024-02-26T10:49:56;15.00;99.90
21092;DHT22;10704;42.678;23.288;2024-02-26T10:52:23;15.10;99.90
21092;DHT22;10704;42.678;23.288;2024-02-26T10:54:54;14.90;99.90
21092;DHT22;10704;42.678;23.288;2024-02-26T10:57:24;14.70;99.90
21092;DHT22;10704;42.678;23.288;2024-02-26T10:59:51;14.60;99.90
21092;DHT22;10704;42.678;23.288;2024-02-26T11:02:17;14.60;99.90
21092;DHT22;10704;42.678;23.288;2024-02-26T11:04:44;14.60;99.90
21092;DHT22;10704;42.678;23.288;2024-02-26T11:07:11;14.50;99.90
21092;DHT22;10704;42.678;23.288;2024-02-26T11:09:37;14.50;99.90
21092;DHT22;10704;42.678;23.288;2024-02-26T11:12:10;14.50;99.90
21092;DHT22;10704;42.678;23.288;2024-02-26T11:14:42;14.40;99.90
21092;DHT22;10704;42.678;23.288;2024-02-26T11:17:11;14.50;99.90
21092;DHT22;10704;42.678;23.288;2024-02-26T11:19:38;14.60;99.90
21092;DHT22;10704;42.678;23.288;2024-02-26T11:22:04;14.70;99.90
21092;DHT22;10704;42.678;23.288;2024-02-26T11:24:30;14.70;99.90
21092;DHT22;10704;42.678;23.288;2024-02-26T11:27:01;14.60;99.90
21092;DHT22;10704;42.678;23.288;2024-02-26T11:29:34;14.60;99.90
21092;DHT22;10704;42.678;23.288;2024-02-26T11:32:01;14.50;99.90
21092;DHT22;10704;42.678;23.288;2024-02-26T11:34:27;14.50;99.90
21092;DHT22;10704;42.678;23.288;2024-02-26T11:36:54;14.40;99.90
21092;DHT22;10704;42.678;23.288;2024-02-26T11:39:22;14.40;99.90
21092;DHT22;10704;42.678;23.288;2024-02-26T11:41:50;14.50;99.90
21092;DHT22;10704;42.678;23.288;2024-02-26T11:44:28;14.70;99.90
21092;DHT22;10704;42.678;23.288;2024-02-26T11:46:56;14.80;99.90
21092;DHT22;10704;42.678;23.288;2024-02-26T11:49:29;14.80;99.90
21092;DHT22;10704;42.678;23.288;2024-02-26T11:51:56;14.70;99.90
21092;DHT22;10704;42.678;23.288;2024-02-26T11:54:49;14.70;99.90
21092;DHT22;10704;42.678;23.288;2024-02-26T11:57:38;14.70;99.90
21092;DHT22;10704;42.678;23.288;2024-02-26T12:05:12;15.20;99.90
21092;DHT22;10704;42.678;23.288;2024-02-26T12:07:59;15.40;99.90
21092;DHT22;10704;42.678;23.288;2024-02-26T12:10:31;15.50;99.90
21092;DHT22;10704;42.678;23.288;2024-02-26T12:13:10;15.60;99.90
21092;DHT22;10704;42.678;23.288;2024-02-26T12:15:39;15.70;99.90
21092;DHT22;10704;42.678;23.288;2024-02-26T12:18:07;15.80;99.50
21092;DHT22;10704;42.678;23.288;2024-02-26T12:20:33;15.50;99.80
21092;DHT22;10704;42.678;23.288;2024-02-26T12:23:02;15.50;99.40
21092;DHT22;10704;42.678;23.288;2024-02-26T12:25:29;15.30;99.70
21092;DHT22;10704;42.678;23.288;2024-02-26T12:27:57;15.40;99.90
21092;DHT22;10704;42.678;23.288;2024-02-26T12:30:23;15.40;99.30
21092;DHT22;10704;42.678;23.288;2024-02-26T12:32:52;15.50;98.70
21092;DHT22;10704;42.678;23.288;2024-02-26T12:35:23;16.00;97.30
21092;DHT22;10704;42.678;23.288;2024-02-26T12:37:49;16.20;96.10
21092;DHT22;10704;42.678;23.288;2024-02-26T12:40:17;16.40;95.30
21092;DHT22;10704;42.678;23.288;2024-02-26T12:42:43;16.30;94.80
21092;DHT22;10704;42.678;23.288;2024-02-26T12:45:11;16.40;94.90
21092;DHT22;10704;42.678;23.288;2024-02-26T12:47:56;16.70;93.70
21092;DHT22;10704;42.678;23.288;2024-02-26T12:50:22;16.40;93.70
21092;DHT22;10704;42.678;23.288;2024-02-26T12:52:49;16.40;94.10
21092;DHT22;10704;42.678;23.288;2024-02-26T12:55:18;16.60;94.00
21092;DHT22;10704;42.678;23.288;2024-02-26T12:57:45;16.40;93.40
21092;DHT22;10704;42.678;23.288;2024-02-26T13:00:22;16.40;93.30
21092;DHT22;10704;42.678;23.288;2024-02-26T13:02:50;16.60;93.10
21092;DHT22;10704;42.678;23.288;2024-02-26T13:05:17;16.40;92.60
21092;DHT22;10704;42.678;23.288;2024-02-26T13:07:44;16.50;92.60
21092;DHT22;10704;42.678;23.288;2024-02-26T13:10:12;16.50;92.30
21092;DHT22;10704;42.678;23.288;2024-02-26T13:12:43;16.50;92.50
21092;DHT22;10704;42.678;23.288;2024-02-26T13:15:15;16.30;92.40
21092;DHT22;10704;42.678;23.288;2024-02-26T13:17:41;16.20;92.80
21092;DHT22;10704;42.678;23.288;2024-02-26T13:20:08;16.00;92.80
21092;DHT22;10704;42.678;23.288;2024-02-26T13:22:36;16.00;93.10
21092;DHT22;10704;42.678;23.288;2024-02-26T13:25:02;16.10;92.90
21092;DHT22;10704;42.678;23.288;2024-02-26T13:27:29;16.00;92.60
21092;DHT22;10704;42.678;23.288;2024-02-26T13:30:04;16.00;93.10
21092;DHT22;10704;42.678;23.288;2024-02-26T13:32:35;15.90;92.70
21092;DHT22;10704;42.678;23.288;2024-02-26T13:35:09;15.70;92.50
21092;DHT22;10704;42.678;23.288;2024-02-26T13:37:36;15.80;92.80
21092;DHT22;10704;42.678;23.288;2024-02-26T13:40:20;15.90;92.40
21092;DHT22;10704;42.678;23.288;2024-02-26T13:42:46;16.00;92.20
21092;DHT22;10704;42.678;23.288;2024-02-26T13:45:13;15.70;91.40
21092;DHT22;10704;42.678;23.288;2024-02-26T13:47:39;15.50;91.90
21092;DHT22;10704;42.678;23.288;2024-02-26T13:50:07;15.40;92.10
21092;DHT22;10704;42.678;23.288;2024-02-26T13:52:33;15.50;92.40
21092;DHT22;10704;42.678;23.288;2024-02-26T13:54:59;15.60;92.70
21092;DHT22;10704;42.678;23.288;2024-02-26T13:57:25;15.70;92.30
21092;DHT22;10704;42.678;23.288;2024-02-26T13:59:52;15.60;92.40
21092;DHT22;10704;42.678;23.288;2024-02-26T14:02:18;15.60;91.60
21092;DHT22;10704;42.678;23.288;2024-02-26T14:04:44;15.80;91.60
21092;DHT22;10704;42.678;23.288;2024-02-26T14:07:12;15.80;91.40
21092;DHT22;10704;42.678;23.288;2024-02-26T14:09:39;15.50;91.30
21092;DHT22;10704;42.678;23.288;2024-02-26T14:12:05;15.50;91.60
21092;DHT22;10704;42.678;23.288;2024-02-26T14:14:31;15.40;91.70
21092;DHT22;10704;42.678;23.288;2024-02-26T14:17:01;15.60;91.30
21092;DHT22;10704;42.678;23.288;2024-02-26T14:19:29;15.60;91.20
21092;DHT22;10704;42.678;23.288;2024-02-26T14:21:55;15.70;90.90
21092;DHT22;10704;42.678;23.288;2024-02-26T14:24:21;15.70;90.30
21092;DHT22;10704;42.678;23.288;2024-02-26T14:26:46;15.50;90.90
21092;DHT22;10704;42.678;23.288;2024-02-26T14:29:12;15.60;90.90
21092;DHT22;10704;42.678;23.288;2024-02-26T14:31:39;15.50;90.80
21092;DHT22;10704;42.678;23.288;2024-02-26T14:34:05;15.40;90.30
21092;DHT22;10704;42.678;23.288;2024-02-26T14:36:32;15.30;90.40
21092;DHT22;10704;42.678;23.288;2024-02-26T14:38:58;15.30;90.10
21092;DHT22;10704;42.678;23.288;2024-02-26T14:41:24;15.20;90.00
21092;DHT22;10704;42.678;23.288;2024-02-26T14:43:51;15.10;90.20
21092;DHT22;10704;42.678;23.288;2024-02-26T14:46:16;15.20;90.20
21092;DHT22;10704;42.678;23.288;2024-02-26T14:48:43;15.10;90.00
21092;DHT22;10704;42.678;23.288;2024-02-26T14:51:08;15.00;90.30
21092;DHT22;10704;42.678;23.288;2024-02-26T14:53:35;15.00;90.40
21092;DHT22;10704;42.678;23.288;2024-02-26T14:56:00;14.90;90.30
21092;DHT22;10704;42.678;23.288;2024-02-26T14:58:26;14.90;90.60
21092;DHT22;10704;42.678;23.288;2024-02-26T15:00:52;14.90;90.60
21092;DHT22;10704;42.678;23.288;2024-02-26T15:03:18;15.00;90.70
21092;DHT22;10704;42.678;23.288;2024-02-26T15:05:44;15.10;90.50
21092;DHT22;10704;42.678;23.288;2024-02-26T15:08:10;15.00;90.40
21092;DHT22;10704;42.678;23.288;2024-02-26T15:10:40;15.00;90.30
21092;DHT22;10704;42.678;23.288;2024-02-26T15:13:13;14.90;90.50
21092;DHT22;10704;42.678;23.288;2024-02-26T15:15:39;14.80;90.50
21092;DHT22;10704;42.678;23.288;2024-02-26T15:18:07;14.70;90.60
21092;DHT22;10704;42.678;23.288;2024-02-26T15:20:34;14.60;90.70
21092;DHT22;10704;42.678;23.288;2024-02-26T15:22:59;14.60;90.80
21092;DHT22;10704;42.678;23.288;2024-02-26T15:25:25;14.60;90.80
21092;DHT22;10704;42.678;23.288;2024-02-26T15:27:51;14.60;90.90
21092;DHT22;10704;42.678;23.288;2024-02-26T15:30:17;14.50;91.10
21092;DHT22;10704;42.678;23.288;2024-02-26T15:32:43;14.50;91.10
21092;DHT22;10704;42.678;23.288;2024-02-26T15:35:10;14.40;91.10
21092;DHT22;10704;42.678;23.288;2024-02-26T15:37:36;14.30;91.50
21092;DHT22;10704;42.678;23.288;2024-02-26T15:40:02;14.30;91.70
21092;DHT22;10704;42.678;23.288;2024-02-26T15:42:29;14.30;91.70
21092;DHT22;10704;42.678;23.288;2024-02-26T15:44:54;14.30;91.70
21092;DHT22;10704;42.678;23.288;2024-02-26T15:47:20;14.20;91.80
21092;DHT22;10704;42.678;23.288;2024-02-26T15:49:46;14.20;92.10
21092;DHT22;10704;42.678;23.288;2024-02-26T15:52:12;14.00;92.00
21092;DHT22;10704;42.678;23.288;2024-02-26T15:54:41;14.00;92.30
21092;DHT22;10704;42.678;23.288;2024-02-26T15:57:07;13.90;92.10
21092;DHT22;10704;42.678;23.288;2024-02-26T15:59:36;13.80;92.30
21092;DHT22;10704;42.678;23.288;2024-02-26T16:02:02;13.70;92.40
21092;DHT22;10704;42.678;23.288;2024-02-26T16:04:28;13.70;92.50
21092;DHT22;10704;42.678;23.288;2024-02-26T16:06:56;13.70;92.90
21092;DHT22;10704;42.678;23.288;2024-02-26T16:09:23;13.60;93.00
21092;DHT22;10704;42.678;23.288;2024-02-26T16:11:49;13.60;93.10
21092;DHT22;10704;42.678;23.288;2024-02-26T16:19:39;13.30;93.40
21092;DHT22;10704;42.678;23.288;2024-02-26T16:22:05;13.40;93.60
21092;DHT22;10704;42.678;23.288;2024-02-26T16:24:31;13.40;93.60
21092;DHT22;10704;42.678;23.288;2024-02-26T16:26:58;13.40;93.50
21092;DHT22;10704;42.678;23.288;2024-02-26T16:29:24;13.30;93.80
21092;DHT22;10704;42.678;23.288;2024-02-26T16:31:50;13.20;93.60
21092;DHT22;10704;42.678;23.288;2024-02-26T16:34:16;13.20;93.80
21092;DHT22;10704;42.678;23.288;2024-02-26T16:36:42;13.20;93.90
21092;DHT22;10704;42.678;23.288;2024-02-26T16:39:09;13.20;94.20
21092;DHT22;10704;42.678;23.288;2024-02-26T16:41:35;13.20;94.20
21092;DHT22;10704;42.678;23.288;2024-02-26T16:44:01;13.10;94.10
21092;DHT22;10704;42.678;23.288;2024-02-26T16:46:27;13.10;94.10
21092;DHT22;10704;42.678;23.288;2024-02-26T16:48:53;13.00;94.20
21092;DHT22;10704;42.678;23.288;2024-02-26T16:51:19;12.90;94.50
21092;DHT22;10704;42.678;23.288;2024-02-26T16:53:45;13.00;94.50
21092;DHT22;10704;42.678;23.288;2024-02-26T16:56:12;12.90;94.40
21092;DHT22;10704;42.678;23.288;2024-02-26T16:58:37;12.90;94.70